Airfield :
LOGIN :

Register | Disclaimer

   EN    FR    IT 

 










Legend :    VFR   Marginal VFR   IFR   Intensive IFR   Very Intensive IFR
Visi :
Ceiling :
>= 8 km
>= 3000ft
5 to 8 km
1000 to 3000 ft
1500m to 5 km
500 to 1000 ft
800 to 1500m
200 to 500 ft
< 800m
< 200 ft
Symbols :   Thunderstorms  Fog  Heavy snow  Heavy precipitations  Wind > 20 kt
SIGMETs :     Misc.  Thunderstorms  Icing  Turbulence  Mountain Waves  Volcanic Ashes







- Airport Elevation : 468 ft
- IATA code : GRO


LEGE - Girona Costa Brava

CURRENT METAR :
  • 241300Z VRB06KT CAVOK 23/05 Q1022

EXPIRED METARs :
  • 241230Z 08005KT 010V140 CAVOK 24/01 Q1022
  • 241200Z 06006KT 020V140 CAVOK 23/02 Q1022
  • 241130Z VRB04KT CAVOK 23/02 Q1023
  • 241100Z 10003KT CAVOK 23/03 Q1023
  • 241030Z 18002KT CAVOK 22/03 Q1023

TAF TAF LEGE
Valid from the 24 at 12:00 until the 25 at 12:00 UTC


241100Z 2412/2512 08009KT 9999 FEW040 TX24/2414Z TN08/2506Z
BECMG 2418/2421 33005KT
TEMPO 2418/2422 VRB03KT
No reported NOTAMs for that airfield.



MET'MAP, your aeronautical weather chart ! - Copyright ORBIFLY December 2007 - Disclaimer

ORBIFLY MET'MAP TEAM :

Programming & Development : Alexandra Zaïnal
Concept & Development : Baudouin d'Aumeries
Co-Development & Prog : Marc-Olivier Méhu
Technical & hardware support : Manuel Goepfert

Contact : metmap@orbifly.com




SOURCES & CREDITS :

   NOAA